createdAt,value
2022-09-18T00:02:55.439Z,61.12
2022-09-18T00:06:08.857Z,61.11
2022-09-18T00:09:18.978Z,61.23
2022-09-18T00:12:12.867Z,61.03
2022-09-18T00:15:23.783Z,61.12
2022-09-18T00:18:22.550Z,60.98
2022-09-18T00:21:45.614Z,61.19
2022-09-18T00:24:44.382Z,61.28
2022-09-18T00:31:39.024Z,61.78
2022-09-18T00:34:49.498Z,61.68
2022-09-18T00:38:00.760Z,62.00
2022-09-18T00:41:14.365Z,62.11
2022-09-18T00:44:24.510Z,62.26
2022-09-18T00:47:53.050Z,62.11
2022-09-18T00:51:03.216Z,62.14
2022-09-18T00:54:30.778Z,62.27
2022-09-18T00:57:42.508Z,62.05
2022-09-18T01:04:59.770Z,62.07
2022-09-18T01:08:17.267Z,62.01
2022-09-18T01:11:10.079Z,62.25
2022-09-18T01:14:24.896Z,62.23
2022-09-18T01:17:37.008Z,62.27
2022-09-18T01:20:56.655Z,62.08
2022-09-18T01:24:22.582Z,62.20
2022-09-18T01:27:37.039Z,62.41
2022-09-18T01:30:49.100Z,62.59
2022-09-18T01:34:04.177Z,62.53
2022-09-18T01:37:01.433Z,62.71
2022-09-18T01:40:17.677Z,62.63
2022-09-18T01:43:40.667Z,62.74
2022-09-18T01:46:51.862Z,62.85
2022-09-18T01:54:06.115Z,62.80
2022-09-18T01:57:09.467Z,62.85
2022-09-18T02:04:21.753Z,63.10
2022-09-18T02:07:37.140Z,63.23
2022-09-18T02:14:51.944Z,63.64
2022-09-18T02:18:06.427Z,63.41
2022-09-18T02:21:02.447Z,63.45
2022-09-18T02:24:17.016Z,63.41
2022-09-18T02:27:22.726Z,63.72
2022-09-18T02:30:13.637Z,63.67
2022-09-18T02:34:10.910Z,63.80
2022-09-18T02:37:45.252Z,63.78
2022-09-18T02:41:12.413Z,64.00
2022-09-18T02:44:32.171Z,64.01
2022-09-18T02:47:31.201Z,64.13
2022-09-18T02:54:32.662Z,64.38
2022-09-18T02:57:34.735Z,64.45
2022-09-18T03:00:45.781Z,64.54
2022-09-18T03:04:06.718Z,64.53
2022-09-18T03:07:14.778Z,64.67
2022-09-18T03:14:26.273Z,64.53
2022-09-18T03:21:12.501Z,64.61
2022-09-18T03:28:37.912Z,64.51
2022-09-18T03:36:13.427Z,64.54
2022-09-18T03:47:40.817Z,64.89
2022-09-18T03:54:52.421Z,64.94
2022-09-18T04:02:04.284Z,65.20
2022-09-18T04:05:23.582Z,65.30
2022-09-18T04:08:32.432Z,65.14
2022-09-18T04:11:31.572Z,65.15
2022-09-18T04:18:44.100Z,65.47
2022-09-18T04:22:18.624Z,65.49
2022-09-18T04:25:28.842Z,65.70
2022-09-18T04:28:39.350Z,65.85
2022-09-18T04:32:05.735Z,65.92
2022-09-18T04:34:48.976Z,66.09
2022-09-18T04:38:16.468Z,66.12
2022-09-18T04:41:27.198Z,66.34
2022-09-18T04:48:39.185Z,66.71
2022-09-18T04:51:31.922Z,66.74
2022-09-18T04:54:27.409Z,66.89
2022-09-18T04:57:37.486Z,67.01
2022-09-18T05:00:51.665Z,67.18
2022-09-18T05:04:04.826Z,67.34
2022-09-18T05:07:23.094Z,67.50
2022-09-18T05:10:35.240Z,67.56
2022-09-18T05:13:36.868Z,67.76
2022-09-18T05:16:47.047Z,67.90
2022-09-18T05:19:54.773Z,67.87
2022-09-18T05:27:54.028Z,68.24
2022-09-18T05:31:02.833Z,68.27
2022-09-18T05:38:17.548Z,68.40
2022-09-18T05:41:37.463Z,68.31
2022-09-18T05:44:49.655Z,68.25
2022-09-18T05:48:00.104Z,68.24
2022-09-18T05:51:10.170Z,68.31
2022-09-18T05:54:36.648Z,68.45
2022-09-18T06:01:48.091Z,68.82
2022-09-18T06:05:01.243Z,68.97
2022-09-18T06:08:12.159Z,69.15
2022-09-18T06:11:13.275Z,69.33
2022-09-18T06:14:25.913Z,69.60
2022-09-18T06:18:10.549Z,69.68
2022-09-18T06:21:20.657Z,69.79
2022-09-18T06:24:38.951Z,69.96
2022-09-18T06:27:58.894Z,69.93
2022-09-18T06:31:09.152Z,70.12
2022-09-18T06:34:33.532Z,70.33
2022-09-18T06:37:46.259Z,70.36
2022-09-18T06:41:22.963Z,70.55
2022-09-18T06:44:52.402Z,70.59
2022-09-18T06:51:34.086Z,70.88
2022-09-18T06:54:33.553Z,70.84
2022-09-18T06:57:43.535Z,70.76
2022-09-18T07:04:56.531Z,69.52
2022-09-18T07:07:48.461Z,67.83
2022-09-18T07:10:32.506Z,66.79
2022-09-18T07:13:03.585Z,65.95
2022-09-18T07:15:36.177Z,64.80
2022-09-18T07:18:15.923Z,63.51
2022-09-18T07:20:48.157Z,61.89
2022-09-18T07:23:43.548Z,60.73
2022-09-18T07:26:19.639Z,59.94
2022-09-18T07:28:52.001Z,58.35
2022-09-18T07:31:25.158Z,56.93
2022-09-18T07:33:58.085Z,55.17
2022-09-18T07:36:32.454Z,54.49
2022-09-18T07:39:02.282Z,53.63
2022-09-18T07:41:37.750Z,52.87
2022-09-18T07:44:11.436Z,52.13
2022-09-18T07:46:43.454Z,50.58
2022-09-18T07:49:25.943Z,49.28
2022-09-18T07:51:55.983Z,48.27
2022-09-18T07:54:25.640Z,47.34
2022-09-18T07:57:02.173Z,46.70
2022-09-18T07:59:41.350Z,45.17
2022-09-18T08:02:13.591Z,44.52
2022-09-18T08:04:44.719Z,43.74
2022-09-18T08:07:21.993Z,42.62
2022-09-18T08:10:12.766Z,41.21
2022-09-18T08:13:07.844Z,40.69
2022-09-18T08:16:07.170Z,39.38
2022-09-18T08:18:58.813Z,37.91
2022-09-18T08:21:48.571Z,37.58
2022-09-18T08:24:20.527Z,36.70
2022-09-18T08:26:50.338Z,36.33
2022-09-18T08:29:21.354Z,36.18
2022-09-18T08:32:06.529Z,35.61
2022-09-18T08:34:39.514Z,34.75
2022-09-18T08:37:09.319Z,33.33
2022-09-18T08:40:05.437Z,31.98
2022-09-18T08:42:56.699Z,30.84
2022-09-18T08:45:34.727Z,30.26
2022-09-18T08:48:08.206Z,29.63
2022-09-18T08:50:44.699Z,28.80
2022-09-18T08:53:19.778Z,28.54
2022-09-18T08:56:16.274Z,27.77
2022-09-18T08:59:00.056Z,27.33
2022-09-18T09:01:35.269Z,26.52
2022-09-18T09:04:14.890Z,25.70
2022-09-18T09:06:52.688Z,25.20
2022-09-18T09:09:34.132Z,24.62
2022-09-18T09:12:11.876Z,24.34
2022-09-18T09:14:57.629Z,24.14
2022-09-18T09:17:39.255Z,23.60
2022-09-18T09:20:16.664Z,23.69
2022-09-18T09:22:50.487Z,22.79
2022-09-18T09:25:22.001Z,21.61
2022-09-18T09:28:26.540Z,21.60
2022-09-18T09:31:15.320Z,21.32
2022-09-18T09:34:06.265Z,21.37
2022-09-18T09:37:05.128Z,21.14
2022-09-18T09:39:42.700Z,20.43
2022-09-18T09:42:17.827Z,20.15
2022-09-18T09:44:52.733Z,20.27
2022-09-18T09:47:28.868Z,20.70
2022-09-18T09:50:16.737Z,19.98
2022-09-18T09:52:47.971Z,19.73
2022-09-18T09:55:25.736Z,20.07
2022-09-18T09:58:03.470Z,19.70
2022-09-18T10:00:37.759Z,19.61
2022-09-18T10:03:27.357Z,19.38
2022-09-18T10:06:36.973Z,19.01
2022-09-18T10:09:36.623Z,19.33
2022-09-18T10:12:19.043Z,18.57
2022-09-18T10:14:51.193Z,19.17
2022-09-18T10:17:22.034Z,19.15
2022-09-18T10:19:54.758Z,18.76
2022-09-18T10:22:33.027Z,19.35
2022-09-18T10:25:04.440Z,19.25
2022-09-18T10:27:37.593Z,19.22
2022-09-18T10:30:12.504Z,19.09
2022-09-18T10:33:02.347Z,19.19
2022-09-18T10:35:45.354Z,18.28
2022-09-18T10:38:37.846Z,18.16
2022-09-18T10:41:25.837Z,17.66
2022-09-18T10:44:21.040Z,17.69
2022-09-18T10:47:08.170Z,17.63
2022-09-18T10:50:06.424Z,17.20
2022-09-18T10:52:56.460Z,17.33
2022-09-18T10:55:55.813Z,17.47
2022-09-18T10:58:32.437Z,17.21
2022-09-18T11:01:14.267Z,17.02
2022-09-18T11:04:00.984Z,17.09
2022-09-18T11:06:36.364Z,17.16
2022-09-18T11:09:39.722Z,16.75
2022-09-18T11:12:16.944Z,16.38
2022-09-18T11:14:49.876Z,16.35
2022-09-18T11:17:29.313Z,16.40
2022-09-18T11:20:22.516Z,16.28
2022-09-18T11:23:15.009Z,15.85
2022-09-18T11:25:45.935Z,15.91
2022-09-18T11:29:03.726Z,16.16
2022-09-18T11:31:42.866Z,16.33
2022-09-18T11:34:34.627Z,16.27
2022-09-18T11:37:07.538Z,16.19
2022-09-18T11:39:39.196Z,15.62
2022-09-18T11:42:11.875Z,14.92
2022-09-18T11:44:41.935Z,15.05
2022-09-18T11:47:29.002Z,15.67
2022-09-18T11:50:40.324Z,15.23
2022-09-18T11:53:31.589Z,15.00
2022-09-18T11:56:14.025Z,15.26
2022-09-18T11:58:48.555Z,16.52
2022-09-18T12:01:25.805Z,17.40
2022-09-18T12:03:59.562Z,17.69
2022-09-18T12:06:36.543Z,17.49
2022-09-18T12:09:32.901Z,18.19
2022-09-18T12:12:07.199Z,19.39
2022-09-18T12:14:42.463Z,19.12
2022-09-18T12:17:21.632Z,18.47
2022-09-18T12:19:55.436Z,18.81
2022-09-18T12:22:29.782Z,19.86
2022-09-18T12:25:02.396Z,20.43
2022-09-18T12:28:03.208Z,19.41
2022-09-18T12:30:38.486Z,18.83
2022-09-18T12:33:14.962Z,18.00
2022-09-18T12:35:53.459Z,17.58
2022-09-18T12:38:28.456Z,18.34
2022-09-18T12:41:09.114Z,19.24
2022-09-18T12:43:55.237Z,21.11
2022-09-18T12:46:33.456Z,22.35
2022-09-18T12:49:15.145Z,22.27
2022-09-18T12:51:46.812Z,21.41
2022-09-18T12:54:31.571Z,21.60
2022-09-18T12:57:08.577Z,22.03
2022-09-18T12:59:52.653Z,20.96
2022-09-18T13:02:38.883Z,20.84
2022-09-18T13:05:14.190Z,21.53
2022-09-18T13:07:46.419Z,21.95
2022-09-18T13:10:20.233Z,21.53
2022-09-18T13:12:53.160Z,20.66
2022-09-18T13:15:24.764Z,21.77
2022-09-18T13:17:57.199Z,21.96
2022-09-18T13:20:28.458Z,21.33
2022-09-18T13:22:58.469Z,20.47
2022-09-18T13:25:29.837Z,20.86
2022-09-18T13:28:00.665Z,21.96
2022-09-18T13:30:31.248Z,21.56
2022-09-18T13:33:02.204Z,21.76
2022-09-18T13:35:32.840Z,21.49
2022-09-18T13:38:07.899Z,20.96
2022-09-18T13:40:38.922Z,20.50
2022-09-18T13:43:31.788Z,20.53
2022-09-18T13:46:06.874Z,19.90
2022-09-18T13:48:43.694Z,19.91
2022-09-18T13:51:22.230Z,18.96
2022-09-18T13:54:10.430Z,19.21
2022-09-18T13:56:53.592Z,19.29
2022-09-18T13:59:24.317Z,19.52
2022-09-18T14:02:02.626Z,19.49
2022-09-18T14:04:58.076Z,19.51
2022-09-18T14:07:44.940Z,19.66
2022-09-18T14:10:24.370Z,20.15
2022-09-18T14:13:17.564Z,20.64
2022-09-18T14:15:54.022Z,20.68
2022-09-18T14:18:28.951Z,21.21
2022-09-18T14:21:00.746Z,21.83
2022-09-18T14:23:50.499Z,22.18
2022-09-18T14:26:35.189Z,22.44
2022-09-18T14:29:07.377Z,23.23
2022-09-18T14:31:47.213Z,23.75
2022-09-18T14:34:19.126Z,23.95
2022-09-18T14:36:49.536Z,24.07
2022-09-18T14:39:28.112Z,24.62
2022-09-18T14:41:59.629Z,25.32
2022-09-18T14:44:30.641Z,25.95
2022-09-18T14:47:05.189Z,26.08
2022-09-18T14:49:36.232Z,26.57
2022-09-18T14:52:20.328Z,27.09
2022-09-18T14:54:50.905Z,27.72
2022-09-18T14:57:22.671Z,27.98
2022-09-18T14:59:53.664Z,28.26
2022-09-18T15:02:29.603Z,28.70
2022-09-18T15:05:00.273Z,28.59
2022-09-18T15:07:30.450Z,28.48
2022-09-18T15:10:02.688Z,28.86
2022-09-18T15:12:34.856Z,28.97
2022-09-18T15:18:18.067Z,29.89
2022-09-18T15:20:51.153Z,29.85
2022-09-18T15:23:30.815Z,29.94
2022-09-18T15:26:02.717Z,30.26
2022-09-18T15:28:34.274Z,30.92
2022-09-18T15:31:05.522Z,31.24
2022-09-18T15:33:36.346Z,31.63
2022-09-18T15:36:23.697Z,32.58
2022-09-18T15:38:57.548Z,33.26
2022-09-18T15:41:37.898Z,33.74
2022-09-18T15:44:07.948Z,34.40
2022-09-18T15:46:38.421Z,34.96
2022-09-18T15:49:22.294Z,35.36
2022-09-18T15:51:52.297Z,35.76
2022-09-18T15:54:29.109Z,36.37
2022-09-18T15:56:59.550Z,36.79
2022-09-18T15:59:31.530Z,37.05
2022-09-18T16:02:05.056Z,37.35
2022-09-18T16:04:35.983Z,37.70
2022-09-18T16:07:07.740Z,38.05
2022-09-18T16:09:47.158Z,38.51
2022-09-18T16:12:37.181Z,38.84
2022-09-18T16:15:17.423Z,39.16
2022-09-18T16:17:58.430Z,39.60
2022-09-18T16:20:30.303Z,39.91
2022-09-18T16:23:05.428Z,40.28
2022-09-18T16:25:37.664Z,40.20
2022-09-18T16:28:20.965Z,40.65
2022-09-18T16:30:50.672Z,40.72
2022-09-18T16:33:21.844Z,40.52
2022-09-18T16:35:57.490Z,40.45
2022-09-18T16:38:27.526Z,40.14
2022-09-18T16:40:57.323Z,40.00
2022-09-18T16:43:27.328Z,40.24
2022-09-18T16:45:57.047Z,40.29
2022-09-18T16:48:26.906Z,40.45
2022-09-18T16:50:56.617Z,40.61
2022-09-18T16:53:26.327Z,40.56
2022-09-18T16:56:01.972Z,40.54
2022-09-18T16:58:31.728Z,41.17
2022-09-18T17:01:01.406Z,41.72
2022-09-18T17:03:31.370Z,42.60
2022-09-18T17:06:02.131Z,43.40
2022-09-18T17:08:32.380Z,43.72
2022-09-18T17:11:06.554Z,43.95
2022-09-18T17:13:36.493Z,44.17
2022-09-18T17:16:06.948Z,44.24
2022-09-18T17:18:37.549Z,44.14
2022-09-18T17:21:07.477Z,44.31
2022-09-18T17:23:40.117Z,44.38
2022-09-18T17:26:10.877Z,44.61
2022-09-18T17:28:51.776Z,44.88
2022-09-18T17:31:21.723Z,45.25
2022-09-18T17:33:52.885Z,45.78
2022-09-18T17:36:22.813Z,46.19
2022-09-18T17:38:52.645Z,46.63
2022-09-18T17:41:22.767Z,47.09
2022-09-18T17:44:00.834Z,47.55
2022-09-18T17:46:30.822Z,47.81
2022-09-18T17:49:01.100Z,48.22
2022-09-18T17:51:39.429Z,48.44
2022-09-18T17:54:19.246Z,48.72
2022-09-18T17:56:49.177Z,48.99
2022-09-18T17:59:19.011Z,49.09
2022-09-18T18:01:48.940Z,49.32
2022-09-18T18:04:19.434Z,49.49
2022-09-18T18:06:49.906Z,49.50
2022-09-18T18:09:19.744Z,49.93
2022-09-18T18:11:50.927Z,50.08
2022-09-18T18:14:20.810Z,50.32
2022-09-18T18:16:52.568Z,50.65
2022-09-18T18:19:22.483Z,50.95
2022-09-18T18:21:55.145Z,51.22
2022-09-18T18:24:25.121Z,51.34
2022-09-18T18:26:58.366Z,51.57
2022-09-18T18:29:42.498Z,51.93
2022-09-18T18:32:12.864Z,52.08
2022-09-18T18:34:42.788Z,52.43
2022-09-18T18:37:15.461Z,52.57
2022-09-18T18:39:54.650Z,52.67
2022-09-18T18:42:28.372Z,53.05
2022-09-18T18:45:12.454Z,53.18
2022-09-18T18:47:50.778Z,53.40
2022-09-18T18:50:23.191Z,53.63
2022-09-18T18:53:08.450Z,53.85
2022-09-18T18:55:49.378Z,54.12
2022-09-18T18:58:22.271Z,54.47
2022-09-18T19:01:08.895Z,54.67
2022-09-18T19:03:52.612Z,54.97
2022-09-18T19:06:27.168Z,55.16
2022-09-18T19:09:20.347Z,55.47
2022-09-18T19:12:10.640Z,55.95
2022-09-18T19:14:40.403Z,56.25
2022-09-18T19:17:11.426Z,56.35
2022-09-18T19:19:42.502Z,56.79
2022-09-18T19:22:24.394Z,56.93
2022-09-18T19:24:56.265Z,57.30
2022-09-18T19:27:49.404Z,57.43
2022-09-18T19:30:36.894Z,57.56
2022-09-18T19:33:07.222Z,57.73
2022-09-18T19:35:37.651Z,57.89
2022-09-18T19:38:07.438Z,58.01
2022-09-18T19:40:39.449Z,58.10
2022-09-18T19:43:38.735Z,58.34
2022-09-18T19:47:00.314Z,58.49
2022-09-18T19:50:18.486Z,58.74
2022-09-18T19:52:57.616Z,58.94
2022-09-18T19:55:32.726Z,59.13
2022-09-18T19:58:05.605Z,59.28
2022-09-18T20:01:00.641Z,59.53
2022-09-18T20:03:30.896Z,59.94
2022-09-18T20:06:02.869Z,60.05
2022-09-18T20:08:32.725Z,60.07
2022-09-18T20:11:07.203Z,60.26
2022-09-18T20:13:37.351Z,60.37
2022-09-18T20:16:08.370Z,60.46
2022-09-18T20:18:38.609Z,60.49
2022-09-18T20:21:28.634Z,60.91
2022-09-18T20:24:11.804Z,60.99
2022-09-18T20:26:52.566Z,61.29
2022-09-18T20:29:22.432Z,61.57
2022-09-18T20:32:14.765Z,61.31
2022-09-18T20:34:47.802Z,61.39
2022-09-18T20:37:17.965Z,61.66
2022-09-18T20:39:52.283Z,61.51
2022-09-18T20:42:36.511Z,61.77
2022-09-18T20:45:15.227Z,61.84
2022-09-18T20:47:50.507Z,61.87
2022-09-18T20:50:23.965Z,62.25
2022-09-18T20:53:02.784Z,62.05
2022-09-18T20:55:36.207Z,62.25
2022-09-18T20:58:12.871Z,62.10
2022-09-18T21:00:43.770Z,62.29
2022-09-18T21:03:30.474Z,62.46
2022-09-18T21:06:21.947Z,62.51
2022-09-18T21:09:02.071Z,62.88
2022-09-18T21:11:52.713Z,62.82
2022-09-18T21:14:24.320Z,62.59
2022-09-18T21:16:55.450Z,62.93
2022-09-18T21:19:36.700Z,62.96
2022-09-18T21:22:20.594Z,63.00
2022-09-18T21:24:53.574Z,62.96
2022-09-18T21:27:31.102Z,63.12
2022-09-18T21:30:12.831Z,63.31
2022-09-18T21:32:45.276Z,63.27
2022-09-18T21:35:27.324Z,63.08
2022-09-18T21:37:58.060Z,63.22
2022-09-18T21:40:30.366Z,63.44
2022-09-18T21:43:00.548Z,63.22
2022-09-18T21:45:50.698Z,63.53
2022-09-18T21:48:41.556Z,63.32
2022-09-18T21:51:28.645Z,63.63
2022-09-18T21:54:14.755Z,63.56
2022-09-18T21:57:16.512Z,63.57
2022-09-18T22:00:10.703Z,63.63
2022-09-18T22:02:43.602Z,63.73
2022-09-18T22:05:43.607Z,63.91
2022-09-18T22:08:16.726Z,64.05
2022-09-18T22:11:33.206Z,64.16
2022-09-18T22:14:24.529Z,64.25
2022-09-18T22:17:22.588Z,64.26
2022-09-18T22:20:12.917Z,64.32
2022-09-18T22:23:24.911Z,64.32
2022-09-18T22:26:05.871Z,64.49
2022-09-18T22:28:38.607Z,64.52
2022-09-18T22:31:46.658Z,64.61
2022-09-18T22:34:41.624Z,64.70
2022-09-18T22:37:34.440Z,64.69
2022-09-18T22:40:14.512Z,64.85
2022-09-18T22:43:03.311Z,64.86
2022-09-18T22:47:06.852Z,65.10
2022-09-18T22:50:11.310Z,65.11
2022-09-18T22:52:56.878Z,65.19
2022-09-18T22:55:29.933Z,65.25
2022-09-18T22:58:22.979Z,65.23
2022-09-18T23:00:56.387Z,65.23
2022-09-18T23:04:06.961Z,65.35
2022-09-18T23:06:57.752Z,65.43
2022-09-18T23:09:31.267Z,65.61
2022-09-18T23:12:04.578Z,65.60
2022-09-18T23:23:29.537Z,65.87
2022-09-18T23:30:11.845Z,65.85
2022-09-18T23:33:02.240Z,65.97
2022-09-18T23:35:55.581Z,65.92
2022-09-18T23:38:49.703Z,66.07
2022-09-18T23:41:34.554Z,66.15
2022-09-18T23:44:10.505Z,66.04
2022-09-18T23:46:58.978Z,66.30
2022-09-18T23:49:49.077Z,66.21
2022-09-18T23:52:18.846Z,66.35
2022-09-18T23:55:07.115Z,66.42
2022-09-18T23:57:57.082Z,66.49
